createdAt,value
2023-04-10T14:22:46.448Z,25.01
2023-04-10T14:23:25.323Z,25.21
2023-04-10T14:24:04.477Z,25.67
2023-04-10T14:24:43.966Z,25.62
2023-04-10T14:25:23.832Z,25.86
2023-04-10T14:26:01.409Z,25.99
2023-04-10T14:26:39.636Z,26.36
2023-04-10T14:27:19.135Z,25.54
2023-04-10T14:27:58.100Z,25.30
2023-04-10T14:28:39.010Z,25.59
2023-04-10T14:29:22.595Z,24.60
2023-04-10T14:30:05.998Z,24.96
2023-04-10T14:30:46.426Z,25.33
2023-04-10T14:31:29.445Z,25.62
2023-04-10T14:32:09.598Z,25.64
2023-04-10T14:32:49.285Z,26.05
2023-04-10T14:33:30.235Z,25.68
2023-04-10T14:34:11.581Z,25.95
2023-04-10T14:34:51.110Z,26.08
2023-04-10T14:35:28.444Z,26.02
2023-04-10T14:36:05.560Z,25.94
2023-04-10T14:36:42.956Z,26.18
2023-04-10T14:37:21.668Z,26.01
2023-04-10T14:37:59.028Z,25.98
2023-04-10T14:38:37.035Z,25.36
2023-04-10T14:39:15.273Z,25.45
2023-04-10T14:39:52.509Z,24.89
2023-04-10T14:40:29.335Z,24.92
2023-04-10T14:41:06.738Z,25.40
2023-04-10T14:41:44.930Z,25.57
2023-04-10T14:42:22.674Z,25.35
2023-04-10T14:43:02.588Z,25.25
2023-04-10T14:43:40.476Z,25.42
2023-04-10T14:44:19.463Z,25.13
2023-04-10T14:44:57.485Z,25.30
2023-04-10T14:45:35.933Z,25.61
2023-04-10T14:46:14.599Z,24.98
2023-04-10T14:46:52.856Z,24.81
2023-04-10T14:47:31.048Z,24.73
2023-04-10T14:48:08.669Z,24.47
2023-04-10T14:48:47.286Z,24.09
2023-04-10T14:49:26.765Z,24.57
2023-04-10T14:50:03.722Z,24.17
2023-04-10T14:50:41.309Z,24.25
2023-04-10T14:51:20.697Z,25.25
2023-04-10T14:51:59.355Z,24.33
2023-04-10T14:52:37.840Z,24.30
2023-04-10T14:53:17.070Z,24.13
2023-04-10T14:53:55.877Z,24.24
2023-04-10T14:54:34.624Z,24.25
2023-04-10T14:55:11.506Z,24.07
2023-04-10T14:55:48.827Z,24.24
2023-04-10T14:56:27.612Z,24.63
2023-04-10T14:57:06.208Z,24.43
2023-04-10T14:57:44.909Z,24.22
2023-04-10T14:58:25.074Z,24.29
2023-04-10T14:59:03.585Z,24.40
2023-04-10T14:59:41.781Z,24.48
2023-04-10T15:00:20.082Z,24.87
2023-04-10T15:00:57.770Z,25.13
2023-04-10T15:01:36.744Z,25.02
2023-04-10T15:02:15.118Z,25.01
2023-04-10T15:02:54.845Z,24.30
2023-04-10T15:03:33.366Z,24.37
2023-04-10T15:04:12.651Z,24.50
2023-04-10T15:04:52.332Z,24.37
2023-04-10T15:05:30.826Z,24.65
2023-04-10T15:06:08.811Z,24.76
2023-04-10T15:06:48.140Z,24.48
2023-04-10T15:07:26.845Z,25.10
2023-04-10T15:08:04.722Z,25.15
2023-04-10T15:08:42.446Z,24.98
2023-04-10T15:09:21.447Z,25.12
2023-04-10T15:10:01.746Z,25.12
2023-04-10T15:10:40.464Z,24.88
2023-04-10T15:11:19.138Z,25.20
2023-04-10T15:11:57.953Z,25.13
2023-04-10T15:12:36.013Z,25.21
2023-04-10T15:13:14.402Z,25.25
2023-04-10T15:13:53.392Z,25.23
2023-04-10T15:14:33.194Z,24.98
2023-04-10T15:15:11.939Z,24.47
2023-04-10T15:15:50.639Z,24.26
2023-04-10T15:16:28.005Z,24.50
2023-04-10T15:17:06.854Z,24.18
2023-04-10T15:17:46.079Z,24.89
2023-04-10T15:18:24.249Z,24.85
2023-04-10T15:19:01.712Z,24.50
2023-04-10T15:19:39.883Z,25.23
2023-04-10T15:20:18.478Z,24.88
2023-04-10T15:20:57.585Z,25.43
2023-04-10T15:21:36.178Z,24.69
2023-04-10T15:22:16.575Z,24.97
2023-04-10T15:22:51.005Z,24.79
2023-04-10T15:23:27.174Z,24.87
2023-04-10T15:24:06.465Z,25.16
2023-04-10T15:24:50.398Z,24.95
2023-04-10T15:25:28.129Z,24.88
2023-04-10T15:26:05.521Z,24.86
2023-04-10T15:26:46.785Z,25.26
2023-04-10T15:27:25.062Z,25.00
2023-04-10T15:28:05.001Z,25.01
2023-04-10T15:28:43.677Z,25.12
2023-04-10T15:29:22.878Z,25.34
2023-04-10T15:30:03.208Z,25.11
2023-04-10T15:30:42.535Z,25.08
2023-04-10T15:31:20.073Z,25.52
2023-04-10T15:31:58.554Z,25.25
2023-04-10T15:32:37.988Z,25.48
2023-04-10T15:33:15.999Z,25.46
2023-04-10T15:33:55.147Z,25.64
2023-04-10T15:34:34.076Z,25.43
2023-04-10T15:35:12.943Z,25.42
2023-04-10T15:35:53.056Z,25.56
2023-04-10T15:36:31.129Z,25.68
2023-04-10T15:37:08.749Z,25.35
2023-04-10T15:37:47.214Z,25.44
2023-04-10T15:38:25.904Z,25.50
2023-04-10T15:39:04.933Z,25.63
2023-04-10T15:39:43.622Z,25.54
2023-04-10T15:40:20.994Z,25.59
2023-04-10T15:41:00.109Z,25.69
2023-04-10T15:41:39.186Z,25.50
2023-04-10T15:42:17.711Z,25.70
2023-04-10T15:42:54.719Z,25.61
2023-04-10T15:43:33.563Z,25.56
2023-04-10T15:44:12.324Z,25.68
2023-04-10T15:44:52.692Z,25.40
2023-04-10T15:45:31.070Z,25.58
2023-04-10T15:46:08.914Z,25.88
2023-04-10T15:46:48.779Z,26.03
2023-04-10T15:47:27.593Z,25.74
2023-04-10T15:48:06.222Z,25.84
2023-04-10T15:48:45.157Z,25.88
2023-04-10T15:49:36.060Z,25.72
2023-04-10T15:50:15.043Z,25.85
2023-04-10T15:50:53.564Z,25.90
2023-04-10T15:51:31.129Z,25.79
2023-04-10T15:52:10.909Z,25.68
2023-04-10T15:52:48.653Z,25.74
2023-04-10T15:53:28.282Z,26.01
2023-04-10T15:54:05.880Z,25.39
2023-04-10T15:54:44.195Z,25.77
2023-04-10T15:55:24.111Z,25.69
2023-04-10T15:56:03.200Z,25.83
2023-04-10T15:56:41.042Z,25.47
2023-04-10T15:57:20.898Z,25.61
2023-04-10T15:58:02.232Z,25.81
2023-04-10T15:58:41.630Z,25.93
2023-04-10T15:59:18.890Z,25.74
2023-04-10T15:59:58.979Z,25.83
2023-04-10T16:00:42.539Z,25.55
2023-04-10T16:01:21.314Z,25.94
2023-04-10T16:02:00.442Z,25.75
2023-04-10T16:02:39.201Z,25.83
2023-04-10T16:03:18.338Z,25.48
2023-04-10T16:03:57.505Z,25.46
2023-04-10T16:04:36.279Z,25.84
2023-04-10T16:05:14.621Z,25.92
2023-04-10T16:05:53.171Z,25.39
2023-04-10T16:06:31.249Z,25.64
2023-04-10T16:07:08.754Z,25.74
2023-04-10T16:07:47.907Z,25.83
2023-04-10T16:08:26.630Z,25.72
2023-04-10T16:09:18.356Z,25.80
2023-04-10T16:10:02.607Z,25.79
2023-04-10T16:10:41.848Z,25.64
2023-04-10T16:11:20.692Z,25.81
2023-04-10T16:11:59.878Z,25.85
2023-04-10T16:12:39.270Z,25.92
2023-04-10T16:13:18.609Z,25.70
2023-04-10T16:13:57.957Z,25.91
2023-04-10T16:14:36.473Z,25.88
2023-04-10T16:15:14.026Z,26.00
2023-04-10T16:15:55.100Z,25.62
2023-04-10T16:16:33.820Z,25.70
2023-04-10T16:17:11.636Z,25.66
2023-04-10T16:17:51.195Z,25.95
2023-04-10T16:18:30.926Z,25.82
2023-04-10T16:19:09.385Z,25.67
2023-04-10T16:19:48.471Z,25.82
2023-04-10T16:20:26.024Z,25.87
2023-04-10T16:21:05.050Z,25.89
2023-04-10T16:21:43.763Z,25.79
2023-04-10T16:22:23.564Z,25.64
2023-04-10T16:23:01.002Z,25.60
2023-04-10T16:23:39.208Z,25.71
2023-04-10T16:24:19.400Z,25.77
2023-04-10T16:25:00.476Z,25.54
2023-04-10T16:25:39.212Z,25.82
2023-04-10T16:26:16.734Z,25.41
2023-04-10T16:26:55.600Z,25.95
2023-04-10T16:27:33.321Z,25.88
2023-04-10T16:28:12.746Z,25.63
2023-04-10T16:28:51.725Z,25.76
2023-04-10T16:29:30.539Z,25.61
2023-04-10T16:30:09.069Z,25.59
2023-04-10T16:30:48.086Z,25.65
2023-04-10T16:31:27.185Z,25.84
2023-04-10T16:32:04.852Z,25.73
2023-04-10T16:32:43.409Z,25.78
2023-04-10T16:33:22.144Z,25.56
2023-04-10T16:34:01.905Z,25.60
2023-04-10T16:34:39.470Z,25.73
2023-04-10T16:35:18.668Z,25.64
2023-04-10T16:35:58.911Z,25.88
2023-04-10T16:36:37.358Z,25.95
2023-04-10T16:37:15.909Z,25.85
2023-04-10T16:37:55.580Z,25.73
2023-04-10T16:38:34.878Z,25.87
2023-04-10T16:39:12.255Z,25.61
2023-04-10T16:39:51.536Z,25.72
2023-04-10T16:40:30.242Z,25.63
2023-04-10T16:41:10.061Z,25.61
2023-04-10T16:41:49.757Z,25.71
2023-04-10T16:42:29.160Z,25.87
2023-04-10T16:43:09.468Z,25.82
2023-04-10T16:43:50.088Z,25.51
2023-04-10T16:44:30.120Z,25.82
2023-04-10T16:45:11.814Z,25.86
2023-04-10T16:45:57.948Z,25.54
2023-04-10T16:46:37.239Z,25.66
2023-04-10T16:47:16.797Z,25.89
2023-04-10T16:47:56.361Z,25.61
2023-04-10T16:48:36.371Z,25.82
2023-04-10T16:49:15.137Z,25.70
2023-04-10T16:49:54.304Z,25.62
2023-04-10T16:50:33.416Z,25.82
2023-04-10T16:51:11.105Z,25.63
2023-04-10T16:51:51.229Z,25.94
2023-04-10T16:52:30.574Z,25.59
2023-04-10T16:53:09.828Z,25.89
2023-04-10T16:53:48.719Z,25.65
2023-04-10T16:54:27.933Z,25.74
2023-04-10T16:55:06.664Z,25.51
2023-04-10T16:55:45.422Z,25.59
2023-04-10T16:56:26.369Z,26.02
2023-04-10T16:57:04.901Z,25.66
2023-04-10T16:57:44.407Z,25.82
2023-04-10T16:58:22.066Z,25.82
2023-04-10T16:59:02.394Z,25.85
2023-04-10T16:59:40.786Z,25.82
2023-04-10T17:00:19.856Z,25.68
2023-04-10T17:00:59.363Z,25.97
2023-04-10T17:01:39.335Z,25.84
2023-04-10T17:02:18.034Z,25.58
2023-04-10T17:02:57.252Z,25.80
2023-04-10T17:03:37.005Z,25.99
2023-04-10T17:04:15.989Z,25.88
2023-04-10T17:04:55.602Z,25.93
2023-04-10T17:05:41.161Z,25.97
2023-04-10T17:06:20.881Z,25.91
2023-04-10T17:06:59.330Z,25.89
2023-04-10T17:07:37.934Z,25.87
2023-04-10T17:08:16.631Z,25.96
2023-04-10T17:08:56.503Z,25.66
2023-04-10T17:09:34.927Z,26.07
2023-04-10T17:10:13.118Z,25.94
2023-04-10T17:10:53.130Z,25.90
2023-04-10T17:11:33.812Z,26.06
2023-04-10T17:12:12.447Z,25.95
2023-04-10T17:12:50.836Z,25.87
2023-04-10T17:13:30.246Z,26.04
2023-04-10T17:14:09.709Z,26.03
2023-04-10T17:14:47.517Z,25.58
2023-04-10T17:15:27.476Z,25.82
2023-04-10T17:16:05.750Z,26.07
2023-04-10T17:16:44.621Z,25.96
2023-04-10T17:17:24.358Z,25.98
2023-04-10T17:18:03.277Z,26.03
2023-04-10T17:18:40.470Z,25.77
2023-04-10T17:19:19.151Z,25.87
2023-04-10T17:19:58.768Z,25.72
2023-04-10T17:20:39.925Z,25.92
2023-04-10T17:21:18.660Z,25.79
2023-04-10T17:21:57.612Z,25.74
2023-04-10T17:22:36.943Z,25.73
2023-04-10T17:23:15.661Z,25.85
2023-04-10T17:23:52.804Z,26.00
2023-04-10T17:24:31.907Z,25.80
2023-04-10T17:25:10.322Z,25.79
2023-04-10T17:25:49.286Z,25.77
2023-04-10T17:26:28.094Z,26.07
2023-04-10T17:27:07.804Z,25.84
2023-04-10T17:27:46.377Z,25.78
2023-04-10T17:28:26.359Z,25.98
2023-04-10T17:29:04.854Z,26.30
2023-04-10T17:29:43.374Z,26.10
2023-04-10T17:30:21.733Z,25.76
2023-04-10T17:31:02.440Z,25.83
2023-04-10T17:31:41.651Z,26.24
2023-04-10T17:32:20.255Z,25.95
2023-04-10T17:33:00.956Z,25.79
2023-04-10T17:33:40.915Z,26.12
2023-04-10T17:34:20.478Z,26.02
2023-04-10T17:35:00.808Z,25.85
2023-04-10T17:35:40.362Z,25.78
2023-04-10T17:36:19.685Z,25.83
2023-04-10T17:37:00.157Z,26.02
2023-04-10T17:37:38.532Z,25.87
2023-04-10T17:38:18.312Z,26.11
2023-04-10T17:38:59.448Z,26.25
2023-04-10T17:39:38.265Z,25.70
2023-04-10T17:40:17.681Z,26.10
2023-04-10T17:40:59.324Z,26.06
2023-04-10T17:41:38.575Z,25.98
2023-04-10T17:42:18.090Z,26.18
2023-04-10T17:42:57.775Z,25.88
2023-04-10T17:43:38.488Z,26.12
2023-04-10T17:44:18.577Z,25.86
2023-04-10T17:45:03.349Z,26.12
2023-04-10T17:45:44.451Z,26.25
2023-04-10T17:46:25.489Z,26.03
2023-04-10T17:47:05.007Z,26.10
2023-04-10T17:47:44.549Z,25.87
2023-04-10T17:48:23.946Z,25.92
2023-04-10T17:49:01.763Z,26.12
2023-04-10T17:49:41.003Z,25.97
2023-04-10T17:50:19.609Z,26.20
2023-04-10T17:50:59.589Z,25.71
2023-04-10T17:51:37.993Z,26.02
2023-04-10T17:52:16.480Z,25.90
2023-04-10T17:52:55.232Z,26.11
2023-04-10T17:53:35.307Z,25.63
2023-04-10T17:54:13.371Z,25.75
2023-04-10T17:54:52.229Z,25.69
2023-04-10T17:55:30.989Z,25.88
2023-04-10T17:56:08.848Z,25.92
2023-04-10T17:56:48.074Z,25.83
2023-04-10T17:57:26.542Z,25.96
2023-04-10T17:58:03.892Z,26.07
2023-04-10T17:58:42.954Z,25.61
2023-04-10T17:59:21.813Z,25.75
2023-04-10T18:00:00.383Z,25.92
2023-04-10T18:00:47.618Z,25.71
2023-04-10T18:01:29.262Z,25.76
2023-04-10T18:02:07.882Z,25.89
2023-04-10T18:02:47.198Z,25.54
2023-04-10T18:03:24.661Z,25.67
2023-04-10T18:04:04.106Z,25.67
2023-04-10T18:04:42.773Z,25.80
2023-04-10T18:05:22.165Z,25.92
2023-04-10T18:06:01.824Z,25.77
2023-04-10T18:06:41.040Z,25.91
2023-04-10T18:07:20.433Z,25.55
2023-04-10T18:07:59.665Z,25.52
2023-04-10T18:08:37.998Z,25.90
2023-04-10T18:09:16.213Z,25.54
2023-04-10T18:09:55.458Z,25.38
2023-04-10T18:10:34.092Z,25.66
2023-04-10T18:11:13.253Z,25.83
2023-04-10T18:11:52.434Z,25.76
2023-04-10T18:12:31.628Z,25.67
2023-04-10T18:13:11.249Z,25.63
2023-04-10T18:13:50.872Z,25.55
2023-04-10T18:14:28.506Z,25.90
2023-04-10T18:15:08.813Z,25.62
2023-04-10T18:15:48.851Z,26.09
2023-04-10T18:16:28.353Z,25.96
2023-04-10T18:17:07.409Z,25.61
2023-04-10T18:17:47.793Z,25.82
2023-04-10T18:18:27.309Z,25.95
2023-04-10T18:19:07.151Z,25.73
2023-04-10T18:19:46.704Z,25.77
2023-04-10T18:20:27.259Z,25.94
2023-04-10T18:21:07.731Z,25.73
2023-04-10T18:21:47.730Z,25.77
2023-04-10T18:22:27.577Z,25.94
2023-04-10T18:23:07.636Z,25.62
2023-04-10T18:23:47.639Z,25.74
2023-04-10T18:24:27.479Z,25.90
2023-04-10T18:25:06.635Z,25.94
2023-04-10T18:25:47.116Z,26.03
2023-04-10T18:26:26.721Z,26.01
2023-04-10T18:27:06.067Z,25.93
2023-04-10T18:27:55.284Z,26.09
2023-04-10T18:28:42.070Z,26.45
2023-04-10T18:29:20.612Z,26.25
2023-04-10T18:29:59.254Z,26.27
2023-04-10T18:30:39.630Z,26.59
2023-04-10T18:31:18.185Z,26.47
2023-04-10T18:31:56.809Z,26.33
2023-04-10T18:32:34.407Z,26.25
2023-04-10T18:33:11.924Z,26.37
2023-04-10T18:34:03.739Z,26.29
2023-04-10T18:34:45.163Z,26.70
2023-04-10T18:35:23.839Z,26.46
2023-04-10T18:36:03.621Z,26.52
2023-04-10T18:36:41.844Z,26.50
2023-04-10T18:37:20.507Z,26.84
2023-04-10T18:37:57.697Z,26.53
2023-04-10T18:38:37.626Z,26.52
2023-04-10T18:39:15.692Z,26.62
2023-04-10T18:39:56.918Z,26.75
2023-04-10T18:40:35.248Z,26.66
2023-04-10T18:41:13.572Z,26.93
2023-04-10T18:41:50.780Z,27.06
2023-04-10T18:42:29.495Z,26.98
2023-04-10T18:43:08.743Z,26.99
2023-04-10T18:43:51.231Z,27.01
2023-04-10T18:44:39.218Z,26.84
2023-04-10T18:45:17.868Z,26.87
2023-04-10T18:45:56.467Z,26.56
2023-04-10T18:46:36.024Z,26.86
2023-04-10T18:47:14.972Z,26.83
2023-04-10T18:47:52.173Z,26.66
2023-04-10T18:48:30.578Z,26.83
2023-04-10T18:49:10.961Z,26.73
2023-04-10T18:49:49.602Z,26.68
2023-04-10T18:50:28.696Z,26.97
2023-04-10T18:51:06.612Z,26.60
2023-04-10T18:51:44.860Z,26.93
2023-04-10T18:52:23.997Z,26.51
2023-04-10T18:53:04.165Z,26.64
2023-04-10T18:53:44.454Z,26.88
2023-04-10T18:54:24.638Z,27.01
2023-04-10T18:55:03.680Z,26.62
2023-04-10T18:55:42.923Z,26.86
2023-04-10T18:56:21.784Z,26.54
2023-04-10T18:57:03.203Z,26.83
2023-04-10T18:57:42.006Z,27.02
2023-04-10T18:58:20.554Z,27.02
2023-04-10T18:58:59.127Z,26.98
2023-04-10T18:59:38.254Z,26.82
2023-04-10T19:00:17.096Z,27.01
2023-04-10T19:00:55.732Z,27.02
2023-04-10T19:01:34.254Z,27.17
2023-04-10T19:02:12.823Z,27.07
2023-04-10T19:02:52.316Z,26.85
2023-04-10T19:03:30.541Z,26.83
2023-04-10T19:04:13.194Z,27.10
2023-04-10T19:04:51.501Z,26.90
2023-04-10T19:05:31.462Z,26.75
2023-04-10T19:06:10.421Z,27.06
2023-04-10T19:06:49.912Z,26.92
2023-04-10T19:07:31.060Z,26.79
2023-04-10T19:08:11.784Z,26.91
2023-04-10T19:08:48.992Z,27.14
2023-04-10T19:09:27.726Z,27.17
2023-04-10T19:10:06.958Z,27.14
2023-04-10T19:10:46.390Z,26.91
2023-04-10T19:11:25.516Z,26.93
2023-04-10T19:12:04.157Z,26.93
2023-04-10T19:12:42.353Z,26.86
2023-04-10T19:13:21.955Z,26.91
2023-04-10T19:13:59.632Z,26.85
2023-04-10T19:14:38.289Z,26.95
2023-04-10T19:15:16.820Z,27.01
2023-04-10T19:15:55.973Z,27.14
2023-04-10T19:16:34.637Z,26.92
2023-04-10T19:17:13.304Z,27.24
2023-04-10T19:17:52.220Z,26.74
2023-04-10T19:18:29.493Z,27.10
2023-04-10T19:19:08.214Z,27.02
2023-04-10T19:19:46.392Z,26.92
2023-04-10T19:20:50.148Z,27.32
2023-04-10T19:21:21.518Z,27.06
2023-04-10T19:22:02.292Z,27.19
2023-04-10T19:22:40.676Z,26.98
2023-04-10T19:23:19.445Z,27.39
2023-04-10T19:23:56.905Z,26.87
2023-04-10T19:24:37.007Z,27.37
2023-04-10T19:25:16.708Z,26.98
2023-04-10T19:25:58.381Z,27.23
2023-04-10T19:26:37.969Z,27.27
2023-04-10T19:27:17.382Z,27.23
2023-04-10T19:27:57.339Z,27.28
2023-04-10T19:28:36.273Z,26.89
2023-04-10T19:29:16.416Z,27.24
2023-04-10T19:29:55.459Z,27.03
2023-04-10T19:30:35.248Z,27.33
2023-04-10T19:31:14.664Z,27.14
2023-04-10T19:31:55.807Z,27.22
2023-04-10T19:32:34.823Z,27.34
2023-04-10T19:33:13.515Z,26.96
2023-04-10T19:33:50.856Z,27.13
2023-04-10T19:34:31.069Z,27.30
2023-04-10T19:35:08.832Z,27.25
2023-04-10T19:35:47.803Z,27.30
2023-04-10T19:36:29.093Z,27.16
2023-04-10T19:37:08.242Z,27.12
2023-04-10T19:37:45.700Z,27.28
2023-04-10T19:38:24.603Z,27.46
2023-04-10T19:39:03.204Z,27.13
2023-04-10T19:39:41.533Z,27.31
2023-04-10T19:40:22.641Z,27.25
2023-04-10T19:41:02.000Z,27.47
2023-04-10T19:41:41.509Z,27.19
2023-04-10T19:42:18.755Z,27.52
2023-04-10T19:42:59.215Z,27.20
2023-04-10T19:43:37.848Z,27.58
2023-04-10T19:44:15.746Z,27.58
2023-04-10T19:44:54.843Z,27.29
2023-04-10T19:45:32.863Z,27.29
2023-04-10T19:46:12.363Z,27.54
2023-04-10T19:46:51.661Z,27.44
2023-04-10T19:47:30.713Z,27.37
2023-04-10T19:48:08.594Z,27.14
2023-04-10T19:48:47.767Z,27.52
2023-04-10T19:49:27.225Z,27.53
2023-04-10T19:50:05.530Z,27.49
2023-04-10T19:50:43.647Z,27.26
2023-04-10T19:51:21.663Z,27.34
2023-04-10T19:51:59.531Z,27.22
2023-04-10T19:52:37.971Z,27.38
2023-04-10T19:53:16.056Z,27.54
2023-04-10T19:53:54.818Z,27.49
2023-04-10T19:54:31.568Z,27.47
2023-04-10T19:55:10.250Z,27.51
2023-04-10T19:55:48.595Z,27.52
2023-04-10T19:56:27.020Z,27.50
2023-04-10T19:57:04.261Z,27.30
2023-04-10T19:57:43.465Z,27.22
2023-04-10T19:58:35.897Z,27.61
2023-04-10T19:59:17.178Z,27.36
2023-04-10T19:59:54.916Z,27.31
2023-04-10T20:00:33.686Z,27.67
2023-04-10T20:01:13.070Z,27.35
2023-04-10T20:01:52.246Z,27.36
2023-04-10T20:02:30.579Z,27.63
2023-04-10T20:03:08.023Z,27.34
2023-04-10T20:03:46.208Z,27.60
2023-04-10T20:04:25.592Z,27.54
2023-04-10T20:05:04.157Z,27.22
2023-04-10T20:05:43.070Z,27.48
2023-04-10T20:06:21.546Z,27.72
2023-04-10T20:07:00.560Z,27.29
2023-04-10T20:07:37.866Z,27.62
2023-04-10T20:08:16.385Z,27.62
2023-04-10T20:08:54.661Z,27.50
2023-04-10T20:09:33.283Z,27.74
2023-04-10T20:10:12.792Z,27.73
2023-04-10T20:10:51.811Z,27.46
2023-04-10T20:11:30.698Z,27.49
2023-04-10T20:12:08.150Z,27.53
2023-04-10T20:12:46.799Z,27.46
2023-04-10T20:13:25.889Z,27.68
2023-04-10T20:14:04.836Z,27.75
2023-04-10T20:14:42.353Z,27.55
2023-04-10T20:15:19.560Z,27.79
2023-04-10T20:15:58.600Z,27.44
2023-04-10T20:16:36.049Z,27.81
2023-04-10T20:17:14.573Z,27.78
2023-04-10T20:17:53.018Z,27.57
2023-04-10T20:18:31.687Z,27.72
2023-04-10T20:19:09.205Z,27.70
2023-04-10T20:19:47.450Z,27.81
2023-04-10T20:20:26.290Z,27.83
2023-04-10T20:21:04.015Z,27.86
2023-04-10T20:21:43.393Z,27.57
2023-04-10T20:22:22.937Z,27.66
2023-04-10T20:23:01.330Z,27.91
2023-04-10T20:23:40.224Z,27.91
2023-04-10T20:24:18.838Z,27.94
2023-04-10T20:24:57.036Z,27.70
2023-04-10T20:25:34.765Z,28.00
2023-04-10T20:26:12.759Z,27.98
2023-04-10T20:26:50.212Z,28.15
2023-04-10T20:27:29.052Z,27.81
2023-04-10T20:28:07.814Z,27.67
2023-04-10T20:28:44.942Z,28.00
2023-04-10T20:29:24.149Z,27.67
2023-04-10T20:30:06.343Z,28.09
2023-04-10T20:30:44.960Z,28.25
2023-04-10T20:31:23.280Z,28.10
2023-04-10T20:32:02.621Z,27.79
2023-04-10T20:32:41.106Z,28.00
2023-04-10T20:33:20.369Z,27.85
2023-04-10T20:33:58.533Z,27.91
2023-04-10T20:34:37.855Z,28.11
2023-04-10T20:35:16.935Z,28.14
2023-04-10T20:35:56.662Z,28.24
2023-04-10T20:36:35.759Z,28.08
2023-04-10T20:37:14.888Z,28.08
2023-04-10T20:37:54.058Z,28.11
2023-04-10T20:38:33.596Z,28.06
2023-04-10T20:39:12.924Z,28.29
2023-04-10T20:39:51.196Z,28.25
2023-04-10T20:40:31.037Z,28.22
2023-04-10T20:41:11.355Z,28.21
2023-04-10T20:41:50.330Z,27.92
2023-04-10T20:42:28.885Z,27.99
2023-04-10T20:43:07.819Z,28.07
2023-04-10T20:43:46.635Z,28.34
2023-04-10T20:44:25.059Z,28.25
2023-04-10T20:45:05.165Z,28.11
2023-04-10T20:45:42.408Z,28.03
2023-04-10T20:46:20.807Z,28.13
2023-04-10T20:46:59.633Z,28.15
2023-04-10T20:47:38.047Z,28.18
2023-04-10T20:48:16.161Z,28.08
2023-04-10T20:48:54.956Z,28.40
2023-04-10T20:49:33.451Z,28.16
2023-04-10T20:50:13.082Z,28.47
2023-04-10T20:50:51.959Z,28.43
2023-04-10T20:51:30.993Z,28.53
2023-04-10T20:52:10.680Z,28.45
2023-04-10T20:52:49.545Z,28.22
2023-04-10T20:53:29.222Z,28.22
2023-04-10T20:54:07.255Z,28.46
2023-04-10T20:54:47.001Z,28.60
2023-04-10T20:55:26.601Z,28.35
2023-04-10T20:56:06.589Z,28.17
2023-04-10T20:56:44.196Z,28.47
2023-04-10T20:57:22.443Z,28.77
2023-04-10T20:58:02.458Z,28.17
2023-04-10T20:58:40.633Z,28.53
2023-04-10T20:59:19.104Z,28.35
2023-04-10T20:59:56.801Z,28.44
2023-04-10T21:00:33.990Z,28.33
2023-04-10T21:01:12.823Z,28.55
2023-04-10T21:01:52.118Z,28.57
2023-04-10T21:02:30.582Z,28.65
2023-04-10T21:03:09.738Z,28.58
2023-04-10T21:03:48.391Z,28.28
2023-04-10T21:04:26.114Z,28.65
2023-04-10T21:05:03.974Z,28.32
2023-04-10T21:05:45.452Z,28.43
2023-04-10T21:06:25.294Z,28.64
2023-04-10T21:07:03.764Z,28.22
2023-04-10T21:07:43.423Z,28.50
2023-04-10T21:08:21.959Z,28.36
2023-04-10T21:09:00.236Z,28.40
2023-04-10T21:09:39.189Z,28.31
2023-04-10T21:10:17.685Z,28.58
2023-04-10T21:10:55.958Z,28.64
2023-04-10T21:11:34.461Z,28.71
2023-04-10T21:12:13.335Z,28.56
2023-04-10T21:12:51.191Z,28.55
2023-04-10T21:13:28.376Z,28.41
2023-04-10T21:14:06.956Z,28.67
2023-04-10T21:14:45.359Z,28.27
2023-04-10T21:15:24.072Z,28.77
2023-04-10T21:16:02.040Z,28.40
2023-04-10T21:16:41.876Z,28.42
2023-04-10T21:17:19.526Z,28.63
2023-04-10T21:17:58.980Z,28.41
2023-04-10T21:18:38.847Z,28.55
2023-04-10T21:19:17.739Z,28.22
2023-04-10T21:19:56.405Z,28.55
2023-04-10T21:20:36.582Z,28.63
2023-04-10T21:21:13.590Z,28.45
2023-04-10T21:21:52.108Z,28.71
2023-04-10T21:22:30.651Z,28.44
2023-04-10T21:23:09.988Z,28.65
2023-04-10T21:23:49.055Z,28.64
2023-04-10T21:24:26.500Z,28.60
2023-04-10T21:25:05.102Z,28.53
2023-04-10T21:25:44.786Z,28.63
2023-04-10T21:26:23.020Z,28.69
2023-04-10T21:27:02.444Z,28.44
2023-04-10T21:27:40.437Z,28.75
2023-04-10T21:28:18.631Z,28.55
2023-04-10T21:28:57.005Z,28.78
2023-04-10T21:29:35.518Z,28.75
2023-04-10T21:30:14.184Z,28.50
2023-04-10T21:30:51.356Z,28.78
2023-04-10T21:31:30.945Z,28.64
2023-04-10T21:32:08.178Z,28.71
2023-04-10T21:32:47.567Z,28.76
2023-04-10T21:33:26.599Z,28.88
2023-04-10T21:34:04.877Z,29.00
2023-04-10T21:34:42.538Z,28.84
2023-04-10T21:35:23.260Z,28.58
2023-04-10T21:36:02.176Z,28.85
2023-04-10T21:36:39.117Z,28.63
2023-04-10T21:37:17.781Z,28.62
2023-04-10T21:37:56.454Z,28.66
2023-04-10T21:38:35.007Z,28.63
2023-04-10T21:39:12.706Z,28.94
2023-04-10T21:39:49.750Z,28.53
2023-04-10T21:40:28.042Z,29.02
2023-04-10T21:41:08.044Z,29.13
2023-04-10T21:41:47.060Z,28.99
2023-04-10T21:42:26.246Z,28.63
2023-04-10T21:43:05.307Z,28.61
2023-04-10T21:43:44.517Z,28.84
2023-04-10T21:44:22.489Z,28.98
2023-04-10T21:45:01.501Z,28.88
2023-04-10T21:45:42.128Z,28.99
2023-04-10T21:46:19.417Z,28.94
2023-04-10T21:47:02.054Z,28.83
2023-04-10T21:47:41.692Z,29.00
2023-04-10T21:48:20.962Z,29.09
2023-04-10T21:49:00.159Z,28.87
2023-04-10T21:49:39.302Z,28.97
2023-04-10T21:50:18.667Z,29.07
2023-04-10T21:50:57.437Z,29.08
2023-04-10T21:51:37.198Z,29.07
2023-04-10T21:52:16.324Z,29.01
2023-04-10T21:52:55.225Z,29.17
2023-04-10T21:53:34.605Z,29.06
2023-04-10T21:54:14.751Z,29.03
2023-04-10T21:54:53.279Z,29.25
2023-04-10T21:55:31.859Z,29.38
2023-04-10T21:56:11.031Z,29.26
2023-04-10T21:56:51.321Z,29.01
2023-04-10T21:57:30.528Z,29.51
2023-04-10T21:58:09.633Z,29.39
2023-04-10T21:58:48.343Z,29.53
2023-04-10T21:59:27.451Z,29.17
2023-04-10T22:00:08.233Z,29.46
2023-04-10T22:00:48.167Z,29.47
2023-04-10T22:01:27.160Z,29.47
2023-04-10T22:02:06.923Z,29.40
2023-04-10T22:02:46.767Z,29.01
2023-04-10T22:03:26.403Z,29.56
2023-04-10T22:04:05.926Z,29.37
2023-04-10T22:04:53.983Z,29.53
2023-04-10T22:05:31.315Z,29.70
2023-04-10T22:06:08.806Z,29.33
2023-04-10T22:06:47.629Z,29.49
2023-04-10T22:07:26.214Z,29.24
2023-04-10T22:08:04.872Z,29.68
2023-04-10T22:08:43.413Z,29.69
2023-04-10T22:09:22.958Z,29.40
2023-04-10T22:10:02.041Z,29.73
2023-04-10T22:10:40.525Z,29.35
2023-04-10T22:11:20.041Z,29.48
2023-04-10T22:11:58.771Z,29.75
2023-04-10T22:12:36.923Z,29.59
2023-04-10T22:13:27.377Z,29.80
2023-04-10T22:14:15.831Z,29.88
2023-04-10T22:14:55.183Z,30.09
2023-04-10T22:15:32.576Z,30.26
2023-04-10T22:16:09.849Z,30.13
2023-04-10T22:16:47.294Z,30.36
2023-04-10T22:17:25.642Z,30.55
2023-04-10T22:18:04.132Z,30.44
2023-04-10T22:18:41.996Z,30.32
2023-04-10T22:19:19.255Z,30.15
2023-04-10T22:19:56.801Z,29.95
2023-04-10T22:20:34.248Z,30.14
2023-04-10T22:21:12.817Z,30.01
2023-04-10T22:21:51.147Z,29.85
2023-04-10T22:22:29.468Z,30.29
2023-04-10T22:23:08.047Z,30.12
2023-04-10T22:23:47.980Z,30.14
2023-04-10T22:24:25.114Z,30.08
2023-04-10T22:25:02.291Z,29.76
2023-04-10T22:25:39.224Z,29.76
2023-04-10T22:26:16.351Z,29.91
2023-04-10T22:26:54.954Z,29.89
2023-04-10T22:27:31.596Z,30.00
2023-04-10T22:28:08.647Z,30.11
2023-04-10T22:28:46.895Z,29.90
2023-04-10T22:29:24.100Z,30.09
2023-04-10T22:30:03.789Z,29.75
2023-04-10T22:30:40.987Z,29.72
2023-04-10T22:31:20.669Z,29.74
2023-04-10T22:31:58.871Z,29.83
2023-04-10T22:32:36.154Z,29.92
2023-04-10T22:33:14.841Z,29.96
2023-04-10T22:33:53.211Z,30.08
2023-04-10T22:34:31.303Z,29.65
2023-04-10T22:35:10.204Z,30.12
2023-04-10T22:35:47.482Z,30.01
2023-04-10T22:36:26.488Z,30.08
2023-04-10T22:37:04.929Z,29.78
2023-04-10T22:37:42.909Z,29.70
2023-04-10T22:38:21.139Z,29.74
2023-04-10T22:38:59.867Z,29.97
2023-04-10T22:39:37.212Z,30.11
2023-04-10T22:40:15.398Z,29.88
2023-04-10T22:40:53.848Z,29.75
2023-04-10T22:41:32.332Z,30.00
2023-04-10T22:42:11.303Z,29.97
2023-04-10T22:42:48.558Z,29.82
2023-04-10T22:43:25.467Z,30.04
2023-04-10T22:44:03.532Z,29.92
2023-04-10T22:44:40.072Z,29.71
2023-04-10T22:45:18.496Z,29.88
2023-04-10T22:45:56.869Z,29.69